sensor_id;sensor_type;location;lat;lon;timestamp;temperature;humidity
1259;DHT22;619;51.472;6.628;2022-09-25T10:34:49;23.90;71.00
1259;DHT22;619;51.472;6.628;2022-09-25T10:37:19;24.40;58.60
1259;DHT22;619;51.472;6.628;2022-09-25T10:40:00;24.40;58.60
1259;DHT22;619;51.472;6.628;2022-09-25T10:42:41;24.50;59.10
1259;DHT22;619;51.472;6.628;2022-09-25T10:45:39;24.60;58.40
1259;DHT22;619;51.472;6.628;2022-09-25T10:48:30;24.60;58.20
1259;DHT22;619;51.472;6.628;2022-09-25T10:51:15;24.50;57.50
1259;DHT22;619;51.472;6.628;2022-09-25T10:53:47;24.50;58.00
1259;DHT22;619;51.472;6.628;2022-09-25T10:56:23;24.40;58.10
1259;DHT22;619;51.472;6.628;2022-09-25T10:58:59;24.30;58.10
1259;DHT22;619;51.472;6.628;2022-09-25T11:01:37;24.30;58.20
1259;DHT22;619;51.472;6.628;2022-09-25T11:04:23;24.30;58.10
1259;DHT22;619;51.472;6.628;2022-09-25T11:06:58;24.30;57.50
1259;DHT22;619;51.472;6.628;2022-09-25T11:09:30;24.10;57.30
1259;DHT22;619;51.472;6.628;2022-09-25T11:12:22;24.00;57.80
1259;DHT22;619;51.472;6.628;2022-09-25T11:14:55;24.00;58.70
1259;DHT22;619;51.472;6.628;2022-09-25T11:17:41;24.00;57.90
1259;DHT22;619;51.472;6.628;2022-09-25T11:22:50;24.00;57.60
1259;DHT22;619;51.472;6.628;2022-09-25T11:25:25;24.10;56.80
1259;DHT22;619;51.472;6.628;2022-09-25T11:28:12;24.20;56.90
1259;DHT22;619;51.472;6.628;2022-09-25T11:30:50;24.20;55.80
1259;DHT22;619;51.472;6.628;2022-09-25T11:35:51;24.50;54.20
1259;DHT22;619;51.472;6.628;2022-09-25T11:38:28;24.70;54.00
1259;DHT22;619;51.472;6.628;2022-09-25T11:41:25;24.90;54.00
1259;DHT22;619;51.472;6.628;2022-09-25T12:00:08;25.30;53.20
1259;DHT22;619;51.472;6.628;2022-09-25T12:05:48;25.40;54.20
1259;DHT22;619;51.472;6.628;2022-09-25T12:35:25;27.10;51.50
1259;DHT22;619;51.472;6.628;2022-09-25T12:44:03;27.40;49.40
1259;DHT22;619;51.472;6.628;2022-09-25T12:46:38;27.50;49.30
1259;DHT22;619;51.472;6.628;2022-09-25T12:49:26;27.40;49.50
1259;DHT22;619;51.472;6.628;2022-09-25T12:52:00;27.40;49.50
1259;DHT22;619;51.472;6.628;2022-09-25T12:54:32;27.50;49.60
1259;DHT22;619;51.472;6.628;2022-09-25T12:57:08;27.50;50.50
1259;DHT22;619;51.472;6.628;2022-09-25T12:59:42;27.60;50.50
1259;DHT22;619;51.472;6.628;2022-09-25T13:05:06;27.60;48.80
1259;DHT22;619;51.472;6.628;2022-09-25T13:07:42;27.60;48.60
1259;DHT22;619;51.472;6.628;2022-09-25T13:12:56;27.80;48.40
1259;DHT22;619;51.472;6.628;2022-09-25T13:15:29;27.90;48.70
1259;DHT22;619;51.472;6.628;2022-09-25T13:17:57;28.00;47.50
1259;DHT22;619;51.472;6.628;2022-09-25T13:25:27;28.30;47.20
1259;DHT22;619;51.472;6.628;2022-09-25T13:27:53;28.20;46.00
1259;DHT22;619;51.472;6.628;2022-09-25T13:30:25;28.20;47.00
1259;DHT22;619;51.472;6.628;2022-09-25T13:32:55;28.10;47.20
1259;DHT22;619;51.472;6.628;2022-09-25T13:35:23;28.10;46.50
1259;DHT22;619;51.472;6.628;2022-09-25T13:38:08;28.10;46.60
1259;DHT22;619;51.472;6.628;2022-09-25T13:40:38;28.10;46.60
1259;DHT22;619;51.472;6.628;2022-09-25T13:43:24;28.10;46.60
1259;DHT22;619;51.472;6.628;2022-09-25T13:48:39;27.90;46.50
1259;DHT22;619;51.472;6.628;2022-09-25T13:54:02;27.50;47.20
1259;DHT22;619;51.472;6.628;2022-09-25T14:01:41;26.50;48.70
1259;DHT22;619;51.472;6.628;2022-09-25T14:06:45;26.10;50.60
1259;DHT22;619;51.472;6.628;2022-09-25T14:09:19;25.90;51.30
1259;DHT22;619;51.472;6.628;2022-09-25T14:14:45;25.50;52.00
1259;DHT22;619;51.472;6.628;2022-09-25T14:17:19;25.40;52.50
1259;DHT22;619;51.472;6.628;2022-09-25T14:19:48;25.30;52.50
1259;DHT22;619;51.472;6.628;2022-09-25T14:22:35;25.30;52.60
1259;DHT22;619;51.472;6.628;2022-09-25T14:27:52;25.30;52.60
1259;DHT22;619;51.472;6.628;2022-09-25T14:30:18;25.40;53.20
1259;DHT22;619;51.472;6.628;2022-09-25T14:38:12;25.20;53.30
1259;DHT22;619;51.472;6.628;2022-09-25T14:46:21;24.80;53.90
1259;DHT22;619;51.472;6.628;2022-09-25T14:49:10;24.80;53.60
1259;DHT22;619;51.472;6.628;2022-09-25T14:51:46;24.60;54.30
1259;DHT22;619;51.472;6.628;2022-09-25T14:54:18;24.50;54.10
1259;DHT22;619;51.472;6.628;2022-09-25T14:56:53;24.30;54.20
1259;DHT22;619;51.472;6.628;2022-09-25T14:59:44;24.30;55.10
1259;DHT22;619;51.472;6.628;2022-09-25T15:02:18;24.40;55.30
1259;DHT22;619;51.472;6.628;2022-09-25T15:04:48;24.50;55.60
1259;DHT22;619;51.472;6.628;2022-09-25T15:07:22;24.60;55.30
1259;DHT22;619;51.472;6.628;2022-09-25T15:09:50;24.80;54.10
1259;DHT22;619;51.472;6.628;2022-09-25T15:12:30;24.90;53.60
1259;DHT22;619;51.472;6.628;2022-09-25T15:17:37;24.80;52.30
1259;DHT22;619;51.472;6.628;2022-09-25T15:20:11;24.60;52.10
1259;DHT22;619;51.472;6.628;2022-09-25T15:22:39;24.40;52.20
1259;DHT22;619;51.472;6.628;2022-09-25T15:25:19;24.20;53.00
1259;DHT22;619;51.472;6.628;2022-09-25T15:27:47;24.00;53.80
1259;DHT22;619;51.472;6.628;2022-09-25T15:30:15;23.80;54.20
1259;DHT22;619;51.472;6.628;2022-09-25T15:32:42;23.40;54.20
1259;DHT22;619;51.472;6.628;2022-09-25T15:35:21;23.10;54.70
1259;DHT22;619;51.472;6.628;2022-09-25T15:37:48;22.90;55.20
1259;DHT22;619;51.472;6.628;2022-09-25T15:40:23;22.80;55.80
1259;DHT22;619;51.472;6.628;2022-09-25T15:42:53;22.70;55.70
1259;DHT22;619;51.472;6.628;2022-09-25T15:47:58;22.50;56.30
1259;DHT22;619;51.472;6.628;2022-09-25T15:50:28;22.50;56.40
1259;DHT22;619;51.472;6.628;2022-09-25T15:52:58;22.50;56.40
1259;DHT22;619;51.472;6.628;2022-09-25T15:55:28;22.40;56.40
1259;DHT22;619;51.472;6.628;2022-09-25T15:58:04;22.40;56.00
1259;DHT22;619;51.472;6.628;2022-09-25T16:00:35;22.40;55.70
1259;DHT22;619;51.472;6.628;2022-09-25T16:03:22;22.40;55.60
1259;DHT22;619;51.472;6.628;2022-09-25T16:06:15;22.40;55.30
1259;DHT22;619;51.472;6.628;2022-09-25T16:08:42;22.30;55.20
1259;DHT22;619;51.472;6.628;2022-09-25T16:13:41;22.30;55.80
1259;DHT22;619;51.472;6.628;2022-09-25T16:16:23;22.30;55.80
1259;DHT22;619;51.472;6.628;2022-09-25T16:18:54;22.30;56.00
1259;DHT22;619;51.472;6.628;2022-09-25T16:24:01;22.30;56.40
1259;DHT22;619;51.472;6.628;2022-09-25T16:26:35;22.30;56.10
1259;DHT22;619;51.472;6.628;2022-09-25T16:29:26;22.30;56.50
1259;DHT22;619;51.472;6.628;2022-09-25T16:31:51;22.20;56.80
1259;DHT22;619;51.472;6.628;2022-09-25T16:34:28;22.20;57.10
1259;DHT22;619;51.472;6.628;2022-09-25T16:36:57;22.10;57.60
1259;DHT22;619;51.472;6.628;2022-09-25T16:39:45;22.10;57.60
1259;DHT22;619;51.472;6.628;2022-09-25T16:42:29;22.00;57.60
1259;DHT22;619;51.472;6.628;2022-09-25T16:45:13;21.90;57.90
1259;DHT22;619;51.472;6.628;2022-09-25T16:47:39;21.90;58.30
1259;DHT22;619;51.472;6.628;2022-09-25T16:50:08;21.90;59.10
1259;DHT22;619;51.472;6.628;2022-09-25T16:52:34;21.80;59.10
1259;DHT22;619;51.472;6.628;2022-09-25T16:55:04;21.80;58.90
1259;DHT22;619;51.472;6.628;2022-09-25T16:57:33;21.70;59.30
1259;DHT22;619;51.472;6.628;2022-09-25T17:00:00;21.70;59.60
1259;DHT22;619;51.472;6.628;2022-09-25T17:02:35;21.70;59.60
1259;DHT22;619;51.472;6.628;2022-09-25T17:05:07;21.60;59.30
1259;DHT22;619;51.472;6.628;2022-09-25T17:07:37;21.50;60.50
1259;DHT22;619;51.472;6.628;2022-09-25T17:10:03;21.40;61.10
1259;DHT22;619;51.472;6.628;2022-09-25T17:12:31;21.40;62.00
1259;DHT22;619;51.472;6.628;2022-09-25T17:14:57;21.40;62.00
1259;DHT22;619;51.472;6.628;2022-09-25T17:17:23;21.30;62.20
1259;DHT22;619;51.472;6.628;2022-09-25T17:19:51;21.20;62.20
1259;DHT22;619;51.472;6.628;2022-09-25T17:22:17;21.20;62.70
1259;DHT22;619;51.472;6.628;2022-09-25T17:24:47;21.10;63.10
1259;DHT22;619;51.472;6.628;2022-09-25T17:27:14;21.00;63.60
1259;DHT22;619;51.472;6.628;2022-09-25T17:29:41;21.00;64.00
1259;DHT22;619;51.472;6.628;2022-09-25T17:32:13;21.00;64.10
1259;DHT22;619;51.472;6.628;2022-09-25T17:34:44;20.90;64.20
1259;DHT22;619;51.472;6.628;2022-09-25T17:37:10;20.90;64.60
1259;DHT22;619;51.472;6.628;2022-09-25T17:39:36;20.80;64.90
1259;DHT22;619;51.472;6.628;2022-09-25T17:42:02;20.80;65.00
1259;DHT22;619;51.472;6.628;2022-09-25T17:44:28;20.80;65.20
1259;DHT22;619;51.472;6.628;2022-09-25T17:46:54;20.70;65.40
1259;DHT22;619;51.472;6.628;2022-09-25T17:49:25;20.70;65.80
1259;DHT22;619;51.472;6.628;2022-09-25T17:51:51;20.60;65.90
1259;DHT22;619;51.472;6.628;2022-09-25T17:54:19;20.60;65.50
1259;DHT22;619;51.472;6.628;2022-09-25T17:56:48;20.60;66.00
1259;DHT22;619;51.472;6.628;2022-09-25T17:59:14;20.50;65.70
1259;DHT22;619;51.472;6.628;2022-09-25T18:01:39;20.50;65.40
1259;DHT22;619;51.472;6.628;2022-09-25T18:04:20;20.50;65.90
1259;DHT22;619;51.472;6.628;2022-09-25T18:06:46;20.50;66.30
1259;DHT22;619;51.472;6.628;2022-09-25T18:09:12;20.40;66.10
1259;DHT22;619;51.472;6.628;2022-09-25T18:11:37;20.40;65.70
1259;DHT22;619;51.472;6.628;2022-09-25T18:14:09;20.40;65.80
1259;DHT22;619;51.472;6.628;2022-09-25T18:16:36;20.30;65.80
1259;DHT22;619;51.472;6.628;2022-09-25T18:19:02;20.30;66.20
1259;DHT22;619;51.472;6.628;2022-09-25T18:21:46;20.20;66.70
1259;DHT22;619;51.472;6.628;2022-09-25T18:24:30;20.20;67.10
1259;DHT22;619;51.472;6.628;2022-09-25T18:26:56;20.10;67.10
1259;DHT22;619;51.472;6.628;2022-09-25T18:29:22;20.10;66.90
1259;DHT22;619;51.472;6.628;2022-09-25T18:31:50;20.00;67.20
1259;DHT22;619;51.472;6.628;2022-09-25T18:34:16;20.00;68.20
1259;DHT22;619;51.472;6.628;2022-09-25T18:36:42;20.00;68.70
1259;DHT22;619;51.472;6.628;2022-09-25T18:39:08;20.00;68.70
1259;DHT22;619;51.472;6.628;2022-09-25T18:41:37;20.00;68.70
1259;DHT22;619;51.472;6.628;2022-09-25T18:44:04;19.90;69.00
1259;DHT22;619;51.472;6.628;2022-09-25T18:46:36;19.90;69.40
1259;DHT22;619;51.472;6.628;2022-09-25T18:49:03;19.80;70.40
1259;DHT22;619;51.472;6.628;2022-09-25T18:51:28;19.70;69.80
1259;DHT22;619;51.472;6.628;2022-09-25T18:53:54;19.60;70.30
1259;DHT22;619;51.472;6.628;2022-09-25T18:56:20;19.50;69.90
1259;DHT22;619;51.472;6.628;2022-09-25T18:58:48;19.40;70.00
1259;DHT22;619;51.472;6.628;2022-09-25T19:01:14;19.30;70.30
1259;DHT22;619;51.472;6.628;2022-09-25T19:03:39;19.20;70.30
1259;DHT22;619;51.472;6.628;2022-09-25T19:06:10;19.10;70.40
1259;DHT22;619;51.472;6.628;2022-09-25T19:08:36;19.00;70.80
1259;DHT22;619;51.472;6.628;2022-09-25T19:11:02;18.90;71.20
1259;DHT22;619;51.472;6.628;2022-09-25T19:13:35;18.80;71.50
1259;DHT22;619;51.472;6.628;2022-09-25T19:16:01;18.70;71.80
1259;DHT22;619;51.472;6.628;2022-09-25T19:18:28;18.60;72.20
1259;DHT22;619;51.472;6.628;2022-09-25T19:20:54;18.50;72.50
1259;DHT22;619;51.472;6.628;2022-09-25T19:23:21;18.40;72.60
1259;DHT22;619;51.472;6.628;2022-09-25T19:25:57;18.30;72.70
1259;DHT22;619;51.472;6.628;2022-09-25T19:28:28;18.30;73.10
1259;DHT22;619;51.472;6.628;2022-09-25T19:31:04;18.10;73.20
1259;DHT22;619;51.472;6.628;2022-09-25T19:33:34;18.00;73.60
1259;DHT22;619;51.472;6.628;2022-09-25T19:36:06;18.00;73.90
1259;DHT22;619;51.472;6.628;2022-09-25T19:38:36;17.90;74.10
1259;DHT22;619;51.472;6.628;2022-09-25T19:41:09;17.80;74.50
1259;DHT22;619;51.472;6.628;2022-09-25T19:43:35;17.70;74.60
1259;DHT22;619;51.472;6.628;2022-09-25T19:46:04;17.60;74.90
1259;DHT22;619;51.472;6.628;2022-09-25T19:48:31;17.60;75.10
1259;DHT22;619;51.472;6.628;2022-09-25T19:50:57;17.50;75.30
1259;DHT22;619;51.472;6.628;2022-09-25T19:53:22;17.40;75.30
1259;DHT22;619;51.472;6.628;2022-09-25T19:55:54;17.40;75.60
1259;DHT22;619;51.472;6.628;2022-09-25T19:58:20;17.30;75.80
1259;DHT22;619;51.472;6.628;2022-09-25T20:00:52;17.30;76.00
1259;DHT22;619;51.472;6.628;2022-09-25T20:03:21;17.20;76.10
1259;DHT22;619;51.472;6.628;2022-09-25T20:05:48;17.10;76.10
1259;DHT22;619;51.472;6.628;2022-09-25T20:08:14;17.10;76.40
1259;DHT22;619;51.472;6.628;2022-09-25T20:10:39;17.00;76.60
1259;DHT22;619;51.472;6.628;2022-09-25T20:13:05;17.00;76.70
1259;DHT22;619;51.472;6.628;2022-09-25T20:15:34;16.90;76.90
1259;DHT22;619;51.472;6.628;2022-09-25T20:18:00;16.90;77.00
1259;DHT22;619;51.472;6.628;2022-09-25T20:20:29;16.90;77.10
1259;DHT22;619;51.472;6.628;2022-09-25T20:22:55;16.80;77.20
1259;DHT22;619;51.472;6.628;2022-09-25T20:25:21;16.80;77.40
1259;DHT22;619;51.472;6.628;2022-09-25T20:27:48;16.70;77.40
1259;DHT22;619;51.472;6.628;2022-09-25T20:30:14;16.70;77.50
1259;DHT22;619;51.472;6.628;2022-09-25T20:32:40;16.70;77.60
1259;DHT22;619;51.472;6.628;2022-09-25T20:35:08;16.70;77.80
1259;DHT22;619;51.472;6.628;2022-09-25T20:37:34;16.60;78.00
1259;DHT22;619;51.472;6.628;2022-09-25T20:40:00;16.60;78.00
1259;DHT22;619;51.472;6.628;2022-09-25T20:42:26;16.60;78.00
1259;DHT22;619;51.472;6.628;2022-09-25T20:44:51;16.60;78.10
1259;DHT22;619;51.472;6.628;2022-09-25T20:47:17;16.60;78.20
1259;DHT22;619;51.472;6.628;2022-09-25T20:49:43;16.60;78.10
1259;DHT22;619;51.472;6.628;2022-09-25T20:52:09;16.60;78.00
1259;DHT22;619;51.472;6.628;2022-09-25T20:54:39;16.50;77.80
1259;DHT22;619;51.472;6.628;2022-09-25T20:57:09;16.50;77.90
1259;DHT22;619;51.472;6.628;2022-09-25T20:59:37;16.50;78.00
1259;DHT22;619;51.472;6.628;2022-09-25T21:02:04;16.40;77.90
1259;DHT22;619;51.472;6.628;2022-09-25T21:04:32;16.50;78.10
1259;DHT22;619;51.472;6.628;2022-09-25T21:06:58;16.40;78.00
1259;DHT22;619;51.472;6.628;2022-09-25T21:09:25;16.40;78.00
1259;DHT22;619;51.472;6.628;2022-09-25T21:11:56;16.40;78.10
1259;DHT22;619;51.472;6.628;2022-09-25T21:14:25;16.30;78.10
1259;DHT22;619;51.472;6.628;2022-09-25T21:16:53;16.30;78.50
1259;DHT22;619;51.472;6.628;2022-09-25T21:19:20;16.30;78.70
1259;DHT22;619;51.472;6.628;2022-09-25T21:21:48;16.20;78.60
1259;DHT22;619;51.472;6.628;2022-09-25T21:24:17;16.20;78.70
1259;DHT22;619;51.472;6.628;2022-09-25T21:26:44;16.20;78.70
1259;DHT22;619;51.472;6.628;2022-09-25T21:29:11;16.10;78.60
1259;DHT22;619;51.472;6.628;2022-09-25T21:31:39;16.10;78.80
1259;DHT22;619;51.472;6.628;2022-09-25T21:34:06;16.10;79.00
1259;DHT22;619;51.472;6.628;2022-09-25T21:36:36;16.10;79.10
1259;DHT22;619;51.472;6.628;2022-09-25T21:39:04;16.10;79.30
1259;DHT22;619;51.472;6.628;2022-09-25T21:41:30;16.10;79.30
1259;DHT22;619;51.472;6.628;2022-09-25T21:44:05;16.10;79.40
1259;DHT22;619;51.472;6.628;2022-09-25T21:46:36;16.10;79.50
1259;DHT22;619;51.472;6.628;2022-09-25T21:49:03;16.10;79.40
1259;DHT22;619;51.472;6.628;2022-09-25T21:51:34;16.10;79.40
1259;DHT22;619;51.472;6.628;2022-09-25T21:54:00;16.10;79.30
1259;DHT22;619;51.472;6.628;2022-09-25T21:56:27;16.10;79.20
1259;DHT22;619;51.472;6.628;2022-09-25T21:58:54;16.10;79.60
1259;DHT22;619;51.472;6.628;2022-09-25T22:01:25;16.10;79.70
1259;DHT22;619;51.472;6.628;2022-09-25T22:03:53;16.10;79.60
1259;DHT22;619;51.472;6.628;2022-09-25T22:06:25;16.10;79.60
1259;DHT22;619;51.472;6.628;2022-09-25T22:08:53;16.10;79.40
1259;DHT22;619;51.472;6.628;2022-09-25T22:11:21;16.10;79.30
1259;DHT22;619;51.472;6.628;2022-09-25T22:13:48;16.10;79.70
1259;DHT22;619;51.472;6.628;2022-09-25T22:16:15;16.10;79.80
1259;DHT22;619;51.472;6.628;2022-09-25T22:18:48;16.10;80.10
1259;DHT22;619;51.472;6.628;2022-09-25T22:21:16;16.10;80.80
1259;DHT22;619;51.472;6.628;2022-09-25T22:23:45;16.20;80.70
1259;DHT22;619;51.472;6.628;2022-09-25T22:26:14;16.20;80.70
1259;DHT22;619;51.472;6.628;2022-09-25T22:28:41;16.20;80.40
1259;DHT22;619;51.472;6.628;2022-09-25T22:31:09;16.20;80.20
1259;DHT22;619;51.472;6.628;2022-09-25T22:33:35;16.20;79.90
1259;DHT22;619;51.472;6.628;2022-09-25T22:36:05;16.30;79.90
1259;DHT22;619;51.472;6.628;2022-09-25T22:38:34;16.30;80.00
1259;DHT22;619;51.472;6.628;2022-09-25T22:41:05;16.30;80.20
1259;DHT22;619;51.472;6.628;2022-09-25T22:43:31;16.30;80.40
1259;DHT22;619;51.472;6.628;2022-09-25T22:45:57;16.30;80.50
1259;DHT22;619;51.472;6.628;2022-09-25T22:48:23;16.30;80.30
1259;DHT22;619;51.472;6.628;2022-09-25T22:51:15;16.30;80.20
1259;DHT22;619;51.472;6.628;2022-09-25T22:53:43;16.30;80.20
1259;DHT22;619;51.472;6.628;2022-09-25T22:58:40;16.40;80.10
1259;DHT22;619;51.472;6.628;2022-09-25T23:01:09;16.40;80.20
1259;DHT22;619;51.472;6.628;2022-09-25T23:03:35;16.40;80.30
1259;DHT22;619;51.472;6.628;2022-09-25T23:06:01;16.40;80.60
1259;DHT22;619;51.472;6.628;2022-09-25T23:08:28;16.40;80.80
1259;DHT22;619;51.472;6.628;2022-09-25T23:11:00;16.50;81.10
1259;DHT22;619;51.472;6.628;2022-09-25T23:13:28;16.50;81.10
1259;DHT22;619;51.472;6.628;2022-09-25T23:15:54;16.60;81.10
1259;DHT22;619;51.472;6.628;2022-09-25T23:18:19;16.60;81.00
1259;DHT22;619;51.472;6.628;2022-09-25T23:20:51;16.70;81.00
1259;DHT22;619;51.472;6.628;2022-09-25T23:23:16;16.70;80.90
1259;DHT22;619;51.472;6.628;2022-09-25T23:25:42;16.80;80.80
1259;DHT22;619;51.472;6.628;2022-09-25T23:28:11;16.80;81.50
1259;DHT22;619;51.472;6.628;2022-09-25T23:30:41;16.80;80.80
1259;DHT22;619;51.472;6.628;2022-09-25T23:33:07;16.80;80.70
1259;DHT22;619;51.472;6.628;2022-09-25T23:35:32;16.90;80.80
1259;DHT22;619;51.472;6.628;2022-09-25T23:38:02;16.90;80.70
1259;DHT22;619;51.472;6.628;2022-09-25T23:40:30;16.90;80.70
1259;DHT22;619;51.472;6.628;2022-09-25T23:42:56;17.00;80.60
1259;DHT22;619;51.472;6.628;2022-09-25T23:45:23;17.00;80.40
1259;DHT22;619;51.472;6.628;2022-09-25T23:47:49;17.00;80.40
1259;DHT22;619;51.472;6.628;2022-09-25T23:50:15;17.10;80.40
1259;DHT22;619;51.472;6.628;2022-09-25T23:52:42;17.10;80.30
1259;DHT22;619;51.472;6.628;2022-09-25T23:55:11;17.10;80.10
1259;DHT22;619;51.472;6.628;2022-09-25T23:57:36;17.20;80.00
